sensor_id;sensor_type;location;lat;lon;timestamp;pressure;altitude;pressure_sealevel;temperature;humidity
141;BME280;65;48.778;9.160;2022-11-18T00:01:19;96759.97;;;7.44;100.00
141;BME280;65;48.778;9.160;2022-11-18T00:03:46;96757.34;;;7.44;100.00
141;BME280;65;48.778;9.160;2022-11-18T00:06:16;96758.69;;;7.49;100.00
141;BME280;65;48.778;9.160;2022-11-18T00:08:42;96758.97;;;7.57;100.00
141;BME280;65;48.778;9.160;2022-11-18T00:11:26;96754.81;;;7.66;100.00
141;BME280;65;48.778;9.160;2022-11-18T00:14:20;96751.28;;;7.78;100.00
141;BME280;65;48.778;9.160;2022-11-18T00:17:02;96745.53;;;7.73;100.00
141;BME280;65;48.778;9.160;2022-11-18T00:21:58;96751.00;;;7.70;100.00
141;BME280;65;48.778;9.160;2022-11-18T00:24:24;96755.69;;;7.78;100.00
141;BME280;65;48.778;9.160;2022-11-18T00:26:50;96745.53;;;7.73;100.00
141;BME280;65;48.778;9.160;2022-11-18T00:29:15;96743.25;;;7.69;100.00
141;BME280;65;48.778;9.160;2022-11-18T00:31:41;96745.97;;;7.67;100.00
141;BME280;65;48.778;9.160;2022-11-18T00:34:10;96751.72;;;7.72;100.00
141;BME280;65;48.778;9.160;2022-11-18T00:36:36;96757.94;;;7.71;100.00
141;BME280;65;48.778;9.160;2022-11-18T00:39:01;96752.72;;;7.82;100.00
141;BME280;65;48.778;9.160;2022-11-18T00:41:27;96759.53;;;7.85;100.00
141;BME280;65;48.778;9.160;2022-11-18T00:44:12;96755.94;;;7.75;100.00
141;BME280;65;48.778;9.160;2022-11-18T00:46:37;96760.56;;;7.71;100.00
141;BME280;65;48.778;9.160;2022-11-18T00:49:03;96762.00;;;7.64;100.00
141;BME280;65;48.778;9.160;2022-11-18T00:51:28;96756.22;;;7.59;100.00
141;BME280;65;48.778;9.160;2022-11-18T00:53:54;96756.69;;;7.53;100.00
141;BME280;65;48.778;9.160;2022-11-18T00:56:19;96756.16;;;7.48;100.00
141;BME280;65;48.778;9.160;2022-11-18T00:58:44;96757.94;;;7.47;100.00
141;BME280;65;48.778;9.160;2022-11-18T01:01:10;96756.69;;;7.53;100.00
141;BME280;65;48.778;9.160;2022-11-18T01:03:35;96758.41;;;7.65;100.00
141;BME280;65;48.778;9.160;2022-11-18T01:06:00;96760.53;;;7.60;100.00
141;BME280;65;48.778;9.160;2022-11-18T01:08:26;96758.13;;;7.57;100.00
141;BME280;65;48.778;9.160;2022-11-18T01:10:51;96760.88;;;7.55;100.00
141;BME280;65;48.778;9.160;2022-11-18T01:13:19;96763.63;;;7.54;100.00
141;BME280;65;48.778;9.160;2022-11-18T01:15:52;96759.94;;;7.56;100.00
141;BME280;65;48.778;9.160;2022-11-18T01:18:23;96761.25;;;7.62;100.00
141;BME280;65;48.778;9.160;2022-11-18T01:20:49;96766.88;;;7.57;100.00
141;BME280;65;48.778;9.160;2022-11-18T01:23:16;96762.78;;;7.53;100.00
141;BME280;65;48.778;9.160;2022-11-18T01:25:43;96769.06;;;7.51;100.00
141;BME280;65;48.778;9.160;2022-11-18T01:28:09;96758.56;;;7.51;100.00
141;BME280;65;48.778;9.160;2022-11-18T01:30:36;96766.13;;;7.55;100.00
141;BME280;65;48.778;9.160;2022-11-18T01:33:03;96758.78;;;7.48;100.00
141;BME280;65;48.778;9.160;2022-11-18T01:35:41;96759.84;;;7.45;100.00
141;BME280;65;48.778;9.160;2022-11-18T01:38:07;96766.78;;;7.46;100.00
141;BME280;65;48.778;9.160;2022-11-18T01:40:35;96767.75;;;7.45;100.00
141;BME280;65;48.778;9.160;2022-11-18T01:43:00;96775.72;;;7.44;100.00
141;BME280;65;48.778;9.160;2022-11-18T01:45:30;96778.47;;;7.42;100.00
141;BME280;65;48.778;9.160;2022-11-18T01:48:35;96772.88;;;7.47;100.00
141;BME280;65;48.778;9.160;2022-11-18T01:51:08;96771.94;;;7.48;100.00
141;BME280;65;48.778;9.160;2022-11-18T01:53:39;96783.16;;;7.50;100.00
141;BME280;65;48.778;9.160;2022-11-18T01:56:11;96784.97;;;7.49;100.00
141;BME280;65;48.778;9.160;2022-11-18T01:58:45;96783.16;;;7.50;100.00
141;BME280;65;48.778;9.160;2022-11-18T02:01:12;96781.06;;;7.55;100.00
141;BME280;65;48.778;9.160;2022-11-18T02:03:38;96788.72;;;7.58;100.00
141;BME280;65;48.778;9.160;2022-11-18T02:06:08;96786.09;;;7.58;100.00
141;BME280;65;48.778;9.160;2022-11-18T02:08:35;96795.16;;;7.54;100.00
141;BME280;65;48.778;9.160;2022-11-18T02:11:02;96798.00;;;7.51;100.00
141;BME280;65;48.778;9.160;2022-11-18T02:13:28;96797.16;;;7.50;100.00
141;BME280;65;48.778;9.160;2022-11-18T02:18:45;96807.38;;;7.55;100.00
141;BME280;65;48.778;9.160;2022-11-18T02:24:10;96808.47;;;7.64;100.00
141;BME280;65;48.778;9.160;2022-11-18T02:29:25;96806.47;;;7.67;100.00
141;BME280;65;48.778;9.160;2022-11-18T02:32:07;96814.22;;;7.69;100.00
141;BME280;65;48.778;9.160;2022-11-18T02:34:39;96806.69;;;7.64;100.00
141;BME280;65;48.778;9.160;2022-11-18T02:40:26;96807.13;;;7.58;100.00
141;BME280;65;48.778;9.160;2022-11-18T02:42:26;96812.41;;;7.58;100.00
141;BME280;65;48.778;9.160;2022-11-18T02:44:59;96815.25;;;7.55;100.00
141;BME280;65;48.778;9.160;2022-11-18T02:47:27;96817.22;;;7.51;100.00
141;BME280;65;48.778;9.160;2022-11-18T02:49:57;96822.72;;;7.48;100.00
141;BME280;65;48.778;9.160;2022-11-18T02:52:25;96814.94;;;7.47;100.00
141;BME280;65;48.778;9.160;2022-11-18T02:54:52;96822.59;;;7.50;100.00
141;BME280;65;48.778;9.160;2022-11-18T02:57:56;96830.28;;;7.53;100.00
141;BME280;65;48.778;9.160;2022-11-18T03:00:22;96822.69;;;7.61;100.00
141;BME280;65;48.778;9.160;2022-11-18T03:02:48;96826.03;;;7.63;100.00
141;BME280;65;48.778;9.160;2022-11-18T03:05:22;96837.16;;;7.67;100.00
141;BME280;65;48.778;9.160;2022-11-18T03:07:55;96836.56;;;7.63;100.00
141;BME280;65;48.778;9.160;2022-11-18T03:10:28;96845.91;;;7.67;100.00
141;BME280;65;48.778;9.160;2022-11-18T03:13:25;96850.44;;;7.65;100.00
141;BME280;65;48.778;9.160;2022-11-18T03:16:01;96853.28;;;7.62;100.00
141;BME280;65;48.778;9.160;2022-11-18T03:18:43;96856.88;;;7.61;100.00
141;BME280;65;48.778;9.160;2022-11-18T03:21:21;96858.03;;;7.57;100.00
141;BME280;65;48.778;9.160;2022-11-18T03:24:26;96868.88;;;7.52;100.00
141;BME280;65;48.778;9.160;2022-11-18T03:27:01;96870.47;;;7.55;100.00
141;BME280;65;48.778;9.160;2022-11-18T03:29:35;96874.88;;;7.54;100.00
141;BME280;65;48.778;9.160;2022-11-18T03:32:09;96875.72;;;7.55;100.00
141;BME280;65;48.778;9.160;2022-11-18T03:34:46;96882.66;;;7.56;100.00
141;BME280;65;48.778;9.160;2022-11-18T03:37:15;96887.78;;;7.57;100.00
141;BME280;65;48.778;9.160;2022-11-18T03:39:47;96898.19;;;7.59;100.00
141;BME280;65;48.778;9.160;2022-11-18T03:42:20;96903.25;;;7.62;100.00
141;BME280;65;48.778;9.160;2022-11-18T03:44:54;96903.97;;;7.64;100.00
141;BME280;65;48.778;9.160;2022-11-18T03:47:54;96915.75;;;7.58;100.00
141;BME280;65;48.778;9.160;2022-11-18T03:50:28;96917.66;;;7.56;100.00
141;BME280;65;48.778;9.160;2022-11-18T03:52:56;96922.91;;;7.56;100.00
141;BME280;65;48.778;9.160;2022-11-18T03:55:34;96920.50;;;7.53;100.00
141;BME280;65;48.778;9.160;2022-11-18T03:58:24;96927.56;;;7.53;100.00
141;BME280;65;48.778;9.160;2022-11-18T04:00:56;96931.03;;;7.41;100.00
141;BME280;65;48.778;9.160;2022-11-18T04:03:23;96930.63;;;7.34;100.00
141;BME280;65;48.778;9.160;2022-11-18T04:05:57;96933.56;;;7.29;100.00
141;BME280;65;48.778;9.160;2022-11-18T04:08:28;96921.81;;;7.22;100.00
141;BME280;65;48.778;9.160;2022-11-18T04:11:07;96929.19;;;7.17;100.00
141;BME280;65;48.778;9.160;2022-11-18T04:13:36;96932.88;;;7.15;100.00
141;BME280;65;48.778;9.160;2022-11-18T04:16:01;96933.72;;;7.15;100.00
141;BME280;65;48.778;9.160;2022-11-18T04:18:27;96938.22;;;7.13;100.00
141;BME280;65;48.778;9.160;2022-11-18T04:20:53;96943.47;;;7.13;100.00
141;BME280;65;48.778;9.160;2022-11-18T04:23:19;96942.75;;;7.11;100.00
141;BME280;65;48.778;9.160;2022-11-18T04:25:44;96948.00;;;7.11;100.00
141;BME280;65;48.778;9.160;2022-11-18T04:28:10;96946.09;;;7.13;100.00
141;BME280;65;48.778;9.160;2022-11-18T04:30:35;96951.38;;;7.13;100.00
141;BME280;65;48.778;9.160;2022-11-18T04:33:00;96959.25;;;7.13;100.00
141;BME280;65;48.778;9.160;2022-11-18T04:35:26;96962.59;;;7.15;100.00
141;BME280;65;48.778;9.160;2022-11-18T04:37:52;96969.53;;;7.16;100.00
141;BME280;65;48.778;9.160;2022-11-18T04:40:18;96962.81;;;7.12;100.00
141;BME280;65;48.778;9.160;2022-11-18T04:42:43;96961.34;;;7.08;100.00
141;BME280;65;48.778;9.160;2022-11-18T04:45:09;96965.66;;;7.09;100.00
141;BME280;65;48.778;9.160;2022-11-18T04:47:35;96961.78;;;7.02;100.00
141;BME280;65;48.778;9.160;2022-11-18T04:50:00;96956.94;;;6.96;100.00
141;BME280;65;48.778;9.160;2022-11-18T04:52:26;96965.94;;;6.92;100.00
141;BME280;65;48.778;9.160;2022-11-18T04:54:51;96958.50;;;6.86;100.00
141;BME280;65;48.778;9.160;2022-11-18T04:57:16;96961.84;;;6.88;100.00
141;BME280;65;48.778;9.160;2022-11-18T04:59:42;96961.13;;;6.86;100.00
141;BME280;65;48.778;9.160;2022-11-18T05:02:07;96965.09;;;6.91;100.00
141;BME280;65;48.778;9.160;2022-11-18T05:04:33;96973.94;;;6.90;100.00
141;BME280;65;48.778;9.160;2022-11-18T05:07:01;96976.44;;;6.92;100.00
141;BME280;65;48.778;9.160;2022-11-18T05:09:27;96980.03;;;6.91;100.00
141;BME280;65;48.778;9.160;2022-11-18T05:11:53;96974.03;;;6.89;100.00
141;BME280;65;48.778;9.160;2022-11-18T05:14:37;96979.41;;;6.87;100.00
141;BME280;65;48.778;9.160;2022-11-18T05:17:05;96982.75;;;6.89;100.00
141;BME280;65;48.778;9.160;2022-11-18T05:19:30;96984.22;;;6.93;100.00
141;BME280;65;48.778;9.160;2022-11-18T05:21:56;96984.22;;;6.93;100.00
141;BME280;65;48.778;9.160;2022-11-18T05:24:22;96987.72;;;6.94;100.00
141;BME280;65;48.778;9.160;2022-11-18T05:26:53;96985.94;;;6.94;100.00
141;BME280;65;48.778;9.160;2022-11-18T05:29:19;96984.22;;;6.93;100.00
141;BME280;65;48.778;9.160;2022-11-18T05:31:51;96984.44;;;6.90;100.00
141;BME280;65;48.778;9.160;2022-11-18T05:34:17;96982.13;;;6.86;100.00
141;BME280;65;48.778;9.160;2022-11-18T05:36:43;96995.66;;;6.80;100.00
141;BME280;65;48.778;9.160;2022-11-18T05:39:08;96993.78;;;6.82;100.00
141;BME280;65;48.778;9.160;2022-11-18T05:41:34;96993.03;;;6.80;100.00
141;BME280;65;48.778;9.160;2022-11-18T05:44:31;97006.06;;;6.81;100.00
141;BME280;65;48.778;9.160;2022-11-18T05:46:56;97005.44;;;6.78;100.00
141;BME280;65;48.778;9.160;2022-11-18T05:49:22;97006.16;;;6.80;100.00
141;BME280;65;48.778;9.160;2022-11-18T05:51:47;97004.38;;;6.80;100.00
141;BME280;65;48.778;9.160;2022-11-18T05:54:14;97011.13;;;6.84;100.00
141;BME280;65;48.778;9.160;2022-11-18T05:56:42;97008.50;;;6.84;100.00
141;BME280;65;48.778;9.160;2022-11-18T05:59:11;97004.16;;;6.71;100.00
141;BME280;65;48.778;9.160;2022-11-18T06:02:09;97017.41;;;6.69;100.00
141;BME280;65;48.778;9.160;2022-11-18T06:04:38;97016.75;;;6.65;100.00
141;BME280;65;48.778;9.160;2022-11-18T06:07:16;97017.81;;;6.63;100.00
141;BME280;65;48.778;9.160;2022-11-18T06:09:46;97029.34;;;6.60;100.00
141;BME280;65;48.778;9.160;2022-11-18T06:12:16;97032.06;;;6.59;100.00
141;BME280;65;48.778;9.160;2022-11-18T06:14:49;97033.31;;;6.53;100.00
141;BME280;65;48.778;9.160;2022-11-18T06:17:20;97039.31;;;6.55;100.00
141;BME280;65;48.778;9.160;2022-11-18T06:19:46;97037.53;;;6.56;100.00
141;BME280;65;48.778;9.160;2022-11-18T06:22:18;97039.63;;;6.51;100.00
141;BME280;65;48.778;9.160;2022-11-18T06:24:44;97044.84;;;6.51;100.00
141;BME280;65;48.778;9.160;2022-11-18T06:27:10;97037.94;;;6.50;100.00
141;BME280;65;48.778;9.160;2022-11-18T06:29:35;97041.41;;;6.50;100.00
141;BME280;65;48.778;9.160;2022-11-18T06:32:01;97043.19;;;6.50;100.00
141;BME280;65;48.778;9.160;2022-11-18T06:34:26;97049.06;;;6.53;100.00
141;BME280;65;48.778;9.160;2022-11-18T06:36:51;97044.56;;;6.55;100.00
141;BME280;65;48.778;9.160;2022-11-18T06:39:17;97053.06;;;6.59;100.00
141;BME280;65;48.778;9.160;2022-11-18T06:41:42;97054.34;;;6.66;100.00
141;BME280;65;48.778;9.160;2022-11-18T06:44:10;97058.13;;;6.62;100.00
141;BME280;65;48.778;9.160;2022-11-18T06:46:36;97060.31;;;6.55;100.00
141;BME280;65;48.778;9.160;2022-11-18T06:49:19;97070.41;;;6.61;100.00
141;BME280;65;48.778;9.160;2022-11-18T06:51:45;97065.59;;;6.68;100.00
141;BME280;65;48.778;9.160;2022-11-18T06:54:10;97074.31;;;6.69;100.00
141;BME280;65;48.778;9.160;2022-11-18T06:56:35;97074.41;;;6.67;100.00
141;BME280;65;48.778;9.160;2022-11-18T06:59:01;97076.19;;;6.66;100.00
141;BME280;65;48.778;9.160;2022-11-18T07:01:29;97070.00;;;6.68;100.00
141;BME280;65;48.778;9.160;2022-11-18T07:03:56;97076.19;;;6.66;100.00
141;BME280;65;48.778;9.160;2022-11-18T07:06:24;97072.44;;;6.71;100.00
141;BME280;65;48.778;9.160;2022-11-18T07:08:51;97080.09;;;6.74;100.00
141;BME280;65;48.778;9.160;2022-11-18T07:11:18;97088.72;;;6.76;100.00
141;BME280;65;48.778;9.160;2022-11-18T07:13:44;97086.00;;;6.77;100.00
141;BME280;65;48.778;9.160;2022-11-18T07:16:16;97098.06;;;6.80;100.00
141;BME280;65;48.778;9.160;2022-11-18T07:18:43;97105.66;;;6.84;100.00
141;BME280;65;48.778;9.160;2022-11-18T07:21:12;97099.34;;;6.87;100.00
141;BME280;65;48.778;9.160;2022-11-18T07:23:38;97103.34;;;6.92;100.00
141;BME280;65;48.778;9.160;2022-11-18T07:26:04;97106.66;;;6.96;100.00
141;BME280;65;48.778;9.160;2022-11-18T07:28:29;97110.28;;;6.93;100.00
141;BME280;65;48.778;9.160;2022-11-18T07:31:27;97113.50;;;6.98;100.00
141;BME280;65;48.778;9.160;2022-11-18T07:33:52;97115.47;;;6.95;100.00
141;BME280;65;48.778;9.160;2022-11-18T07:36:21;97115.91;;;7.02;100.00
141;BME280;65;48.778;9.160;2022-11-18T07:38:47;97116.75;;;7.02;100.00
141;BME280;65;48.778;9.160;2022-11-18T07:41:14;97117.50;;;7.04;100.00
141;BME280;65;48.778;9.160;2022-11-18T07:43:40;97119.91;;;7.07;100.00
141;BME280;65;48.778;9.160;2022-11-18T07:48:41;97136.00;;;7.15;100.00
141;BME280;65;48.778;9.160;2022-11-18T07:51:07;97134.31;;;7.14;100.00
141;BME280;65;48.778;9.160;2022-11-18T07:53:33;97138.09;;;7.10;100.00
141;BME280;65;48.778;9.160;2022-11-18T07:55:59;97142.75;;;7.19;100.00
141;BME280;65;48.778;9.160;2022-11-18T07:58:25;97143.19;;;7.26;100.00
141;BME280;65;48.778;9.160;2022-11-18T08:00:50;97150.13;;;7.27;100.00
141;BME280;65;48.778;9.160;2022-11-18T08:03:15;97150.56;;;7.34;100.00
141;BME280;65;48.778;9.160;2022-11-18T08:05:41;97158.75;;;7.29;100.00
141;BME280;65;48.778;9.160;2022-11-18T08:08:06;97157.25;;;7.25;100.00
141;BME280;65;48.778;9.160;2022-11-18T08:10:32;97166.19;;;7.22;100.00
141;BME280;65;48.778;9.160;2022-11-18T08:12:57;97168.28;;;7.17;100.00
141;BME280;65;48.778;9.160;2022-11-18T08:15:23;97171.44;;;7.22;100.00
141;BME280;65;48.778;9.160;2022-11-18T08:17:49;97177.66;;;7.21;100.00
141;BME280;65;48.778;9.160;2022-11-18T08:20:15;97184.47;;;7.24;100.00
141;BME280;65;48.778;9.160;2022-11-18T08:22:40;97182.91;;;7.21;100.00
141;BME280;65;48.778;9.160;2022-11-18T08:25:06;97193.06;;;7.13;100.00
141;BME280;65;48.778;9.160;2022-11-18T08:27:32;97192.03;;;7.16;100.00
141;BME280;65;48.778;9.160;2022-11-18T08:29:57;97197.53;;;7.25;100.00
141;BME280;65;48.778;9.160;2022-11-18T08:32:23;97190.19;;;7.30;100.00
141;BME280;65;48.778;9.160;2022-11-18T08:34:49;97194.72;;;7.41;100.00
141;BME280;65;48.778;9.160;2022-11-18T08:37:15;97193.47;;;7.47;100.00
141;BME280;65;48.778;9.160;2022-11-18T08:39:40;97199.94;;;7.55;100.00
141;BME280;65;48.778;9.160;2022-11-18T08:42:06;97206.44;;;7.63;100.00
141;BME280;65;48.778;9.160;2022-11-18T08:44:31;97205.28;;;7.54;100.00
141;BME280;65;48.778;9.160;2022-11-18T08:46:58;97208.75;;;7.54;100.00
141;BME280;65;48.778;9.160;2022-11-18T08:49:24;97208.00;;;7.52;100.00
141;BME280;65;48.778;9.160;2022-11-18T08:51:49;97203.28;;;7.57;100.00
141;BME280;65;48.778;9.160;2022-11-18T08:54:15;97208.03;;;7.65;100.00
141;BME280;65;48.778;9.160;2022-11-18T08:56:40;97210.75;;;7.64;100.00
141;BME280;65;48.778;9.160;2022-11-18T08:59:06;97212.03;;;7.58;100.00
141;BME280;65;48.778;9.160;2022-11-18T09:01:36;97217.28;;;7.58;100.00
141;BME280;65;48.778;9.160;2022-11-18T09:04:02;97218.34;;;7.68;100.00
141;BME280;65;48.778;9.160;2022-11-18T09:06:27;97220.66;;;7.60;100.00
141;BME280;65;48.778;9.160;2022-11-18T09:08:53;97220.84;;;7.57;100.00
141;BME280;65;48.778;9.160;2022-11-18T09:11:21;97222.66;;;7.56;100.00
141;BME280;65;48.778;9.160;2022-11-18T09:13:47;97224.63;;;7.53;100.00
141;BME280;65;48.778;9.160;2022-11-18T09:16:15;97226.00;;;7.58;100.00
141;BME280;65;48.778;9.160;2022-11-18T09:18:41;97235.69;;;7.58;100.00
141;BME280;65;48.778;9.160;2022-11-18T09:21:08;97229.69;;;7.56;100.00
141;BME280;65;48.778;9.160;2022-11-18T09:23:35;97241.88;;;7.57;100.00
141;BME280;65;48.778;9.160;2022-11-18T09:26:09;97236.31;;;7.61;100.00
141;BME280;65;48.778;9.160;2022-11-18T09:28:36;97242.31;;;7.64;100.00
141;BME280;65;48.778;9.160;2022-11-18T09:31:09;97240.94;;;7.58;100.00
141;BME280;65;48.778;9.160;2022-11-18T09:33:35;97243.25;;;7.63;100.00
141;BME280;65;48.778;9.160;2022-11-18T09:36:03;97250.75;;;7.69;100.00
141;BME280;65;48.778;9.160;2022-11-18T09:38:29;97244.66;;;7.68;100.00
141;BME280;65;48.778;9.160;2022-11-18T09:51:47;97257.41;;;8.00;100.00
141;BME280;65;48.778;9.160;2022-11-18T09:54:22;97262.78;;;7.98;100.00
141;BME280;65;48.778;9.160;2022-11-18T09:56:51;97272.25;;;8.01;100.00
141;BME280;65;48.778;9.160;2022-11-18T09:59:19;97263.19;;;7.92;100.00
141;BME280;65;48.778;9.160;2022-11-18T10:01:45;97270.78;;;7.97;100.00
141;BME280;65;48.778;9.160;2022-11-18T10:04:16;97266.59;;;8.19;100.00
141;BME280;65;48.778;9.160;2022-11-18T10:06:43;97268.09;;;8.36;100.00
141;BME280;65;48.778;9.160;2022-11-18T10:12:31;97273.34;;;8.62;100.00
141;BME280;65;48.778;9.160;2022-11-18T10:15:20;97276.72;;;8.64;100.00
141;BME280;65;48.778;9.160;2022-11-18T10:21:23;97276.94;;;8.35;100.00
141;BME280;65;48.778;9.160;2022-11-18T10:23:32;97280.84;;;8.42;100.00
141;BME280;65;48.778;9.160;2022-11-18T10:25:59;97278.53;;;8.50;100.00
141;BME280;65;48.778;9.160;2022-11-18T10:28:29;97282.41;;;8.57;100.00
141;BME280;65;48.778;9.160;2022-11-18T10:31:09;97291.78;;;8.74;100.00
141;BME280;65;48.778;9.160;2022-11-18T10:33:36;97286.28;;;8.90;100.00
141;BME280;65;48.778;9.160;2022-11-18T10:36:28;97287.38;;;9.11;100.00
141;BME280;65;48.778;9.160;2022-11-18T10:39:12;97297.00;;;9.36;100.00
141;BME280;65;48.778;9.160;2022-11-18T10:42:16;97293.53;;;9.60;100.00
141;BME280;65;48.778;9.160;2022-11-18T10:44:45;97294.66;;;9.92;100.00
141;BME280;65;48.778;9.160;2022-11-18T10:47:26;97286.19;;;10.11;100.00
141;BME280;65;48.778;9.160;2022-11-18T10:49:54;97293.22;;;9.99;100.00
141;BME280;65;48.778;9.160;2022-11-18T10:52:21;97301.56;;;9.58;100.00
141;BME280;65;48.778;9.160;2022-11-18T10:55:14;97290.97;;;9.10;100.00
141;BME280;65;48.778;9.160;2022-11-18T10:57:42;97291.28;;;9.06;100.00
141;BME280;65;48.778;9.160;2022-11-18T11:00:38;97298.28;;;8.94;100.00
141;BME280;65;48.778;9.160;2022-11-18T11:03:25;97303.72;;;8.67;100.00
141;BME280;65;48.778;9.160;2022-11-18T11:11:38;97294.63;;;8.46;100.00
141;BME280;65;48.778;9.160;2022-11-18T11:14:10;97301.78;;;8.56;100.00
141;BME280;65;48.778;9.160;2022-11-18T11:22:21;97311.06;;;8.49;100.00
141;BME280;65;48.778;9.160;2022-11-18T11:24:46;97311.91;;;8.63;100.00
141;BME280;65;48.778;9.160;2022-11-18T11:30:21;97312.00;;;8.86;100.00
141;BME280;65;48.778;9.160;2022-11-18T11:35:43;97308.25;;;9.14;100.00
141;BME280;65;48.778;9.160;2022-11-18T11:38:34;97308.41;;;9.24;100.00
141;BME280;65;48.778;9.160;2022-11-18T11:41:25;97306.50;;;9.63;100.00
141;BME280;65;48.778;9.160;2022-11-18T12:00:42;97326.09;;;9.95;100.00
141;BME280;65;48.778;9.160;2022-11-18T12:05:44;97327.63;;;9.87;100.00
141;BME280;65;48.778;9.160;2022-11-18T12:08:14;97326.91;;;9.72;100.00
141;BME280;65;48.778;9.160;2022-11-18T12:16:09;97324.06;;;9.14;100.00
141;BME280;65;48.778;9.160;2022-11-18T12:21:07;97332.31;;;8.97;100.00
141;BME280;65;48.778;9.160;2022-11-18T12:26:40;97334.78;;;8.75;100.00
141;BME280;65;48.778;9.160;2022-11-18T12:29:30;97339.09;;;8.50;100.00
141;BME280;65;48.778;9.160;2022-11-18T12:32:35;97337.34;;;8.24;100.00
141;BME280;65;48.778;9.160;2022-11-18T12:43:04;97348.34;;;8.04;100.00
141;BME280;65;48.778;9.160;2022-11-18T12:45:56;97346.88;;;8.00;100.00
141;BME280;65;48.778;9.160;2022-11-18T12:48:29;97354.56;;;8.03;100.00
141;BME280;65;48.778;9.160;2022-11-18T12:50:57;97350.97;;;8.04;100.00
141;BME280;65;48.778;9.160;2022-11-18T12:53:42;97349.94;;;8.06;100.00
141;BME280;65;48.778;9.160;2022-11-18T12:58:50;97346.25;;;8.36;100.00
141;BME280;65;48.778;9.160;2022-11-18T13:01:19;97349.50;;;8.65;100.00
141;BME280;65;48.778;9.160;2022-11-18T13:03:45;97350.78;;;8.84;100.00
141;BME280;65;48.778;9.160;2022-11-18T13:06:24;97355.91;;;9.11;100.00
141;BME280;65;48.778;9.160;2022-11-18T13:08:53;97359.91;;;9.17;100.00
141;BME280;65;48.778;9.160;2022-11-18T13:11:20;97358.41;;;9.38;100.00
141;BME280;65;48.778;9.160;2022-11-18T13:14:05;97352.00;;;9.77;100.00
141;BME280;65;48.778;9.160;2022-11-18T13:16:50;97348.41;;;9.78;100.00
141;BME280;65;48.778;9.160;2022-11-18T13:19:34;97352.19;;;9.63;100.00
141;BME280;65;48.778;9.160;2022-11-18T13:22:00;97353.44;;;9.34;100.00
141;BME280;65;48.778;9.160;2022-11-18T13:24:49;97359.06;;;9.29;100.00
141;BME280;65;48.778;9.160;2022-11-18T13:30:13;97358.63;;;9.23;100.00
141;BME280;65;48.778;9.160;2022-11-18T13:32:44;97354.84;;;9.14;100.00
141;BME280;65;48.778;9.160;2022-11-18T13:35:22;97359.94;;;8.92;100.00
141;BME280;65;48.778;9.160;2022-11-18T13:37:57;97356.56;;;9.02;100.00
141;BME280;65;48.778;9.160;2022-11-18T13:40:27;97348.41;;;9.18;100.00
141;BME280;65;48.778;9.160;2022-11-18T13:42:53;97349.13;;;9.33;100.00
141;BME280;65;48.778;9.160;2022-11-18T13:45:19;97360.53;;;9.20;100.00
141;BME280;65;48.778;9.160;2022-11-18T13:48:00;97360.88;;;9.03;100.00
141;BME280;65;48.778;9.160;2022-11-18T13:50:31;97362.66;;;9.03;100.00
141;BME280;65;48.778;9.160;2022-11-18T13:55:53;97363.53;;;8.91;100.00
141;BME280;65;48.778;9.160;2022-11-18T13:58:41;97379.75;;;9.10;100.00
141;BME280;65;48.778;9.160;2022-11-18T14:01:18;97367.91;;;9.28;100.00
141;BME280;65;48.778;9.160;2022-11-18T14:03:49;97363.72;;;9.26;100.00
141;BME280;65;48.778;9.160;2022-11-18T14:11:37;97363.75;;;8.87;100.00
141;BME280;65;48.778;9.160;2022-11-18T14:14:03;97365.84;;;8.95;100.00
141;BME280;65;48.778;9.160;2022-11-18T14:16:33;97366.19;;;8.78;100.00
141;BME280;65;48.778;9.160;2022-11-18T14:18:59;97367.75;;;8.68;100.00
141;BME280;65;48.778;9.160;2022-11-18T14:21:30;97375.97;;;8.63;100.00
141;BME280;65;48.778;9.160;2022-11-18T14:23:56;97385.44;;;8.66;100.00
141;BME280;65;48.778;9.160;2022-11-18T14:26:33;97373.34;;;8.76;100.00
141;BME280;65;48.778;9.160;2022-11-18T14:29:01;97381.47;;;8.73;100.00
141;BME280;65;48.778;9.160;2022-11-18T14:31:29;97388.84;;;8.68;100.00
141;BME280;65;48.778;9.160;2022-11-18T14:34:19;97392.59;;;8.64;100.00
141;BME280;65;48.778;9.160;2022-11-18T14:36:46;97392.38;;;8.67;100.00
141;BME280;65;48.778;9.160;2022-11-18T14:41:49;97388.84;;;8.80;100.00
141;BME280;65;48.778;9.160;2022-11-18T14:44:20;97394.22;;;8.79;100.00
141;BME280;65;48.778;9.160;2022-11-18T14:46:50;97398.22;;;8.72;100.00
141;BME280;65;48.778;9.160;2022-11-18T14:49:20;97400.50;;;8.64;100.00
141;BME280;65;48.778;9.160;2022-11-18T14:51:47;97395.91;;;8.67;100.00
141;BME280;65;48.778;9.160;2022-11-18T14:54:15;97403.88;;;8.66;100.00
141;BME280;65;48.778;9.160;2022-11-18T14:56:41;97405.13;;;8.47;100.00
141;BME280;65;48.778;9.160;2022-11-18T14:59:18;97402.56;;;8.33;100.00
141;BME280;65;48.778;9.160;2022-11-18T15:01:45;97402.00;;;8.28;100.00
141;BME280;65;48.778;9.160;2022-11-18T15:04:11;97394.22;;;8.27;100.00
141;BME280;65;48.778;9.160;2022-11-18T15:06:37;97398.09;;;8.21;100.00
141;BME280;65;48.778;9.160;2022-11-18T15:09:04;97400.50;;;8.11;100.00
141;BME280;65;48.778;9.160;2022-11-18T15:11:31;97399.56;;;8.12;100.00
141;BME280;65;48.778;9.160;2022-11-18T15:13:57;97412.03;;;8.09;100.00
141;BME280;65;48.778;9.160;2022-11-18T15:16:25;97406.97;;;8.06;100.00
141;BME280;65;48.778;9.160;2022-11-18T15:18:54;97411.97;;;8.10;100.00
141;BME280;65;48.778;9.160;2022-11-18T15:21:20;97411.03;;;8.11;100.00
141;BME280;65;48.778;9.160;2022-11-18T15:23:46;97422.88;;;8.04;100.00
141;BME280;65;48.778;9.160;2022-11-18T15:26:29;97427.09;;;8.07;100.00
141;BME280;65;48.778;9.160;2022-11-18T15:28:58;97431.50;;;8.06;100.00
141;BME280;65;48.778;9.160;2022-11-18T15:31:23;97435.16;;;8.18;100.00
141;BME280;65;48.778;9.160;2022-11-18T15:33:49;97435.91;;;8.20;100.00
141;BME280;65;48.778;9.160;2022-11-18T15:36:30;97442.84;;;8.21;100.00
141;BME280;65;48.778;9.160;2022-11-18T15:38:56;97443.50;;;8.24;100.00
141;BME280;65;48.778;9.160;2022-11-18T15:41:29;97448.84;;;8.23;100.00
141;BME280;65;48.778;9.160;2022-11-18T15:43:56;97444.53;;;8.22;100.00
141;BME280;65;48.778;9.160;2022-11-18T15:46:23;97448.09;;;8.21;100.00
141;BME280;65;48.778;9.160;2022-11-18T15:48:53;97447.38;;;8.19;100.00
141;BME280;65;48.778;9.160;2022-11-18T15:51:19;97448.50;;;8.15;100.00
141;BME280;65;48.778;9.160;2022-11-18T15:53:45;97446.72;;;8.15;100.00
141;BME280;65;48.778;9.160;2022-11-18T15:58:59;97448.63;;;8.13;100.00
141;BME280;65;48.778;9.160;2022-11-18T16:01:28;97450.78;;;8.07;100.00
141;BME280;65;48.778;9.160;2022-11-18T16:03:54;97445.72;;;8.04;100.00